YCWS weather

Cowes Airport
Victoria, Australia

Public forecast

Using degrees Celsius for public forecast. Weather courtesy of forecast.io.

METAR (pilot weather report)

Closest report is Avalon Airport, 45.0 nm (83.3 km) NW. Retrieved 2019/03/19 07:30 UTC (0 seconds ago):

YMAV 190730Z AUTO 17014KT 9999 // OVC010 19/17 Q1015 RF00.0/000.0

TAF (pilot weather forecast)

Forecast is more than 12 hours old.

Closest forecast is Avalon Airport, 45.0 nm (83.3 km) NW. Retrieved 2019/03/18 12:00 UTC (19 hours ago):

TAF YMAV 181130Z 1812/1912 14012KT 9999 BKN015 FM181500 14010KT 9999 -DZ BKN010 BECMG 1900/1902 16013KT 9999 -SHRA SCT012 BKN018 TEMPO 1815/1824 4000 -DZ BKN006 INTER 1900/1912 8000 -SHRA BKN010